sensor_id;sensor_type;location;lat;lon;timestamp;temperature;humidity
25092;DHT22;13082;52.374;4.946;2022-08-11T00:00:42;22.30;99.90
25092;DHT22;13082;52.374;4.946;2022-08-11T00:03:11;22.30;99.90
25092;DHT22;13082;52.374;4.946;2022-08-11T00:05:50;22.30;99.90
25092;DHT22;13082;52.374;4.946;2022-08-11T00:08:25;22.30;99.90
25092;DHT22;13082;52.374;4.946;2022-08-11T00:10:55;22.30;99.90
25092;DHT22;13082;52.374;4.946;2022-08-11T00:13:22;22.20;99.90
25092;DHT22;13082;52.374;4.946;2022-08-11T00:15:55;22.30;99.90
25092;DHT22;13082;52.374;4.946;2022-08-11T00:18:21;22.20;99.90
25092;DHT22;13082;52.374;4.946;2022-08-11T00:20:48;22.10;99.90
25092;DHT22;13082;52.374;4.946;2022-08-11T00:23:17;22.10;99.90
25092;DHT22;13082;52.374;4.946;2022-08-11T00:25:45;22.10;99.90
25092;DHT22;13082;52.374;4.946;2022-08-11T00:28:31;22.00;99.90
25092;DHT22;13082;52.374;4.946;2022-08-11T00:31:06;22.00;99.90
25092;DHT22;13082;52.374;4.946;2022-08-11T00:33:42;22.00;99.90
25092;DHT22;13082;52.374;4.946;2022-08-11T00:36:09;22.00;99.90
25092;DHT22;13082;52.374;4.946;2022-08-11T00:38:40;22.00;99.90
25092;DHT22;13082;52.374;4.946;2022-08-11T00:41:19;22.00;99.90
25092;DHT22;13082;52.374;4.946;2022-08-11T00:47:11;22.00;99.90
25092;DHT22;13082;52.374;4.946;2022-08-11T00:52:16;21.90;99.90
25092;DHT22;13082;52.374;4.946;2022-08-11T00:58:28;21.80;99.90
25092;DHT22;13082;52.374;4.946;2022-08-11T01:01:09;21.80;99.90
25092;DHT22;13082;52.374;4.946;2022-08-11T01:41:35;21.50;99.90
25092;DHT22;13082;52.374;4.946;2022-08-11T01:47:37;21.60;99.90
25092;DHT22;13082;52.374;4.946;2022-08-11T01:53:23;21.50;99.90
25092;DHT22;13082;52.374;4.946;2022-08-11T02:01:50;21.50;99.90
25092;DHT22;13082;52.374;4.946;2022-08-11T02:04:48;21.40;99.90
25092;DHT22;13082;52.374;4.946;2022-08-11T02:07:26;21.40;99.90
25092;DHT22;13082;52.374;4.946;2022-08-11T02:13:04;21.40;99.90
25092;DHT22;13082;52.374;4.946;2022-08-11T02:15:38;21.40;99.90
25092;DHT22;13082;52.374;4.946;2022-08-11T02:18:23;21.40;99.90
25092;DHT22;13082;52.374;4.946;2022-08-11T02:21:15;21.40;99.90
25092;DHT22;13082;52.374;4.946;2022-08-11T02:24:13;21.40;99.90
25092;DHT22;13082;52.374;4.946;2022-08-11T02:26:49;21.40;99.90
25092;DHT22;13082;52.374;4.946;2022-08-11T02:29:23;21.40;99.90
25092;DHT22;13082;52.374;4.946;2022-08-11T02:32:38;21.40;99.90
25092;DHT22;13082;52.374;4.946;2022-08-11T02:35:27;21.50;99.90
25092;DHT22;13082;52.374;4.946;2022-08-11T02:38:04;21.50;99.90
25092;DHT22;13082;52.374;4.946;2022-08-11T02:40:51;21.50;99.90
25092;DHT22;13082;52.374;4.946;2022-08-11T02:46:22;21.40;99.90
25092;DHT22;13082;52.374;4.946;2022-08-11T02:49:08;21.40;99.90
25092;DHT22;13082;52.374;4.946;2022-08-11T02:52:17;21.40;99.90
25092;DHT22;13082;52.374;4.946;2022-08-11T02:57:42;21.40;99.90
25092;DHT22;13082;52.374;4.946;2022-08-11T03:00:14;21.40;99.90
25092;DHT22;13082;52.374;4.946;2022-08-11T03:13:18;21.40;99.90
25092;DHT22;13082;52.374;4.946;2022-08-11T03:16:20;21.30;99.90
25092;DHT22;13082;52.374;4.946;2022-08-11T03:22:16;21.20;99.90
25092;DHT22;13082;52.374;4.946;2022-08-11T03:30:09;21.20;99.90
25092;DHT22;13082;52.374;4.946;2022-08-11T03:35:44;21.10;99.90
25092;DHT22;13082;52.374;4.946;2022-08-11T03:38:14;21.20;99.90
25092;DHT22;13082;52.374;4.946;2022-08-11T03:44:46;21.20;99.90
25092;DHT22;13082;52.374;4.946;2022-08-11T03:50:31;21.30;99.90
25092;DHT22;13082;52.374;4.946;2022-08-11T04:14:44;20.90;99.90
25092;DHT22;13082;52.374;4.946;2022-08-11T04:23:41;20.90;99.90
25092;DHT22;13082;52.374;4.946;2022-08-11T04:30:04;20.90;99.90
25092;DHT22;13082;52.374;4.946;2022-08-11T04:44:54;20.90;99.90
25092;DHT22;13082;52.374;4.946;2022-08-11T04:57:07;20.90;99.90
25092;DHT22;13082;52.374;4.946;2022-08-11T05:00:03;21.00;99.90
25092;DHT22;13082;52.374;4.946;2022-08-11T05:03:15;20.90;99.90
25092;DHT22;13082;52.374;4.946;2022-08-11T05:09:00;20.90;99.90
25092;DHT22;13082;52.374;4.946;2022-08-11T05:14:29;20.90;99.90
25092;DHT22;13082;52.374;4.946;2022-08-11T05:17:36;20.90;99.90
25092;DHT22;13082;52.374;4.946;2022-08-11T05:20:23;21.00;99.90
25092;DHT22;13082;52.374;4.946;2022-08-11T05:23:10;21.10;99.90
25092;DHT22;13082;52.374;4.946;2022-08-11T05:25:57;21.10;99.90
25092;DHT22;13082;52.374;4.946;2022-08-11T05:28:50;21.20;99.90
25092;DHT22;13082;52.374;4.946;2022-08-11T05:31:37;21.20;99.90
25092;DHT22;13082;52.374;4.946;2022-08-11T05:34:28;21.20;99.90
25092;DHT22;13082;52.374;4.946;2022-08-11T05:40:11;21.20;99.90
25092;DHT22;13082;52.374;4.946;2022-08-11T05:42:58;21.30;99.90
25092;DHT22;13082;52.374;4.946;2022-08-11T05:45:42;21.30;99.90
25092;DHT22;13082;52.374;4.946;2022-08-11T05:48:32;21.30;99.90
25092;DHT22;13082;52.374;4.946;2022-08-11T05:51:17;21.30;99.90
25092;DHT22;13082;52.374;4.946;2022-08-11T05:54:03;21.30;99.90
25092;DHT22;13082;52.374;4.946;2022-08-11T05:56:56;21.40;99.90
25092;DHT22;13082;52.374;4.946;2022-08-11T05:59:24;21.40;99.90
25092;DHT22;13082;52.374;4.946;2022-08-11T06:01:51;21.40;99.90
25092;DHT22;13082;52.374;4.946;2022-08-11T06:04:21;21.40;99.90
25092;DHT22;13082;52.374;4.946;2022-08-11T06:11:47;21.50;99.90
25092;DHT22;13082;52.374;4.946;2022-08-11T06:14:13;21.50;99.90
25092;DHT22;13082;52.374;4.946;2022-08-11T06:16:40;21.60;99.90
25092;DHT22;13082;52.374;4.946;2022-08-11T06:19:07;21.60;99.90
25092;DHT22;13082;52.374;4.946;2022-08-11T06:21:34;21.60;99.90
25092;DHT22;13082;52.374;4.946;2022-08-11T06:24:03;21.70;99.90
25092;DHT22;13082;52.374;4.946;2022-08-11T06:26:30;21.70;99.90
25092;DHT22;13082;52.374;4.946;2022-08-11T06:28:58;21.70;99.90
25092;DHT22;13082;52.374;4.946;2022-08-11T06:31:26;21.70;99.90
25092;DHT22;13082;52.374;4.946;2022-08-11T06:34:06;21.70;99.90
25092;DHT22;13082;52.374;4.946;2022-08-11T06:36:53;21.80;99.90
25092;DHT22;13082;52.374;4.946;2022-08-11T06:39:26;21.80;99.90
25092;DHT22;13082;52.374;4.946;2022-08-11T06:42:06;21.90;99.90
25092;DHT22;13082;52.374;4.946;2022-08-11T06:44:40;21.90;99.90
25092;DHT22;13082;52.374;4.946;2022-08-11T06:47:11;21.90;99.90
25092;DHT22;13082;52.374;4.946;2022-08-11T06:49:42;22.00;99.90
25092;DHT22;13082;52.374;4.946;2022-08-11T06:52:34;22.00;99.90
25092;DHT22;13082;52.374;4.946;2022-08-11T06:55:10;22.10;99.90
25092;DHT22;13082;52.374;4.946;2022-08-11T06:57:38;22.10;99.90
25092;DHT22;13082;52.374;4.946;2022-08-11T07:00:26;22.10;99.90
25092;DHT22;13082;52.374;4.946;2022-08-11T07:03:10;22.20;99.90
25092;DHT22;13082;52.374;4.946;2022-08-11T07:14:04;22.40;99.90
25092;DHT22;13082;52.374;4.946;2022-08-11T07:16:50;22.50;99.90
25092;DHT22;13082;52.374;4.946;2022-08-11T07:19:23;22.60;99.90
25092;DHT22;13082;52.374;4.946;2022-08-11T07:22:09;22.60;99.90
25092;DHT22;13082;52.374;4.946;2022-08-11T07:25:14;22.80;99.90
25092;DHT22;13082;52.374;4.946;2022-08-11T07:28:24;22.80;99.90
25092;DHT22;13082;52.374;4.946;2022-08-11T07:31:11;22.80;99.90
25092;DHT22;13082;52.374;4.946;2022-08-11T07:33:51;22.80;99.90
25092;DHT22;13082;52.374;4.946;2022-08-11T07:36:17;22.90;99.90
25092;DHT22;13082;52.374;4.946;2022-08-11T07:38:47;22.90;99.90
25092;DHT22;13082;52.374;4.946;2022-08-11T07:41:17;22.90;99.90
25092;DHT22;13082;52.374;4.946;2022-08-11T07:43:45;23.00;99.90
25092;DHT22;13082;52.374;4.946;2022-08-11T07:46:14;23.10;99.90
25092;DHT22;13082;52.374;4.946;2022-08-11T07:48:59;23.20;99.90
25092;DHT22;13082;52.374;4.946;2022-08-11T07:51:45;23.30;99.90
25092;DHT22;13082;52.374;4.946;2022-08-11T07:54:29;23.30;99.90
25092;DHT22;13082;52.374;4.946;2022-08-11T07:56:56;23.40;99.90
25092;DHT22;13082;52.374;4.946;2022-08-11T07:59:23;23.50;99.90
25092;DHT22;13082;52.374;4.946;2022-08-11T08:02:10;23.50;99.90
25092;DHT22;13082;52.374;4.946;2022-08-11T08:04:57;23.60;99.90
25092;DHT22;13082;52.374;4.946;2022-08-11T08:07:42;23.70;99.90
25092;DHT22;13082;52.374;4.946;2022-08-11T08:10:27;23.80;99.90
25092;DHT22;13082;52.374;4.946;2022-08-11T08:13:12;23.80;99.90
25092;DHT22;13082;52.374;4.946;2022-08-11T08:15:57;23.90;99.90
25092;DHT22;13082;52.374;4.946;2022-08-11T08:18:42;23.90;99.90
25092;DHT22;13082;52.374;4.946;2022-08-11T08:21:08;23.90;99.90
25092;DHT22;13082;52.374;4.946;2022-08-11T08:23:42;24.00;99.90
25092;DHT22;13082;52.374;4.946;2022-08-11T08:26:11;24.10;99.90
25092;DHT22;13082;52.374;4.946;2022-08-11T08:28:59;24.20;99.90
25092;DHT22;13082;52.374;4.946;2022-08-11T08:31:45;24.20;99.90
25092;DHT22;13082;52.374;4.946;2022-08-11T08:34:13;24.30;99.90
25092;DHT22;13082;52.374;4.946;2022-08-11T08:36:42;24.30;99.90
25092;DHT22;13082;52.374;4.946;2022-08-11T08:39:09;24.40;99.90
25092;DHT22;13082;52.374;4.946;2022-08-11T08:41:37;24.50;99.90
25092;DHT22;13082;52.374;4.946;2022-08-11T08:44:07;24.60;99.90
25092;DHT22;13082;52.374;4.946;2022-08-11T08:46:40;24.70;99.90
25092;DHT22;13082;52.374;4.946;2022-08-11T08:49:09;24.70;99.90
25092;DHT22;13082;52.374;4.946;2022-08-11T08:51:39;24.80;99.90
25092;DHT22;13082;52.374;4.946;2022-08-11T08:54:20;24.90;99.90
25092;DHT22;13082;52.374;4.946;2022-08-11T08:56:48;24.90;99.90
25092;DHT22;13082;52.374;4.946;2022-08-11T08:59:16;25.00;99.90
25092;DHT22;13082;52.374;4.946;2022-08-11T09:01:45;25.00;99.90
25092;DHT22;13082;52.374;4.946;2022-08-11T09:04:12;25.00;99.90
25092;DHT22;13082;52.374;4.946;2022-08-11T09:06:40;25.00;99.90
25092;DHT22;13082;52.374;4.946;2022-08-11T09:09:08;25.20;99.90
25092;DHT22;13082;52.374;4.946;2022-08-11T09:11:37;25.20;99.90
25092;DHT22;13082;52.374;4.946;2022-08-11T09:14:22;25.30;99.90
25092;DHT22;13082;52.374;4.946;2022-08-11T09:16:49;25.40;99.90
25092;DHT22;13082;52.374;4.946;2022-08-11T09:19:18;25.50;99.90
25092;DHT22;13082;52.374;4.946;2022-08-11T09:21:47;25.60;99.90
25092;DHT22;13082;52.374;4.946;2022-08-11T09:24:36;25.70;99.90
25092;DHT22;13082;52.374;4.946;2022-08-11T09:27:22;25.80;99.90
25092;DHT22;13082;52.374;4.946;2022-08-11T09:29:49;25.70;99.90
25092;DHT22;13082;52.374;4.946;2022-08-11T09:32:21;25.80;99.90
25092;DHT22;13082;52.374;4.946;2022-08-11T09:34:49;25.80;99.90
25092;DHT22;13082;52.374;4.946;2022-08-11T09:37:16;25.80;99.90
25092;DHT22;13082;52.374;4.946;2022-08-11T09:40:02;25.80;99.90
25092;DHT22;13082;52.374;4.946;2022-08-11T09:42:46;25.90;99.90
25092;DHT22;13082;52.374;4.946;2022-08-11T09:45:31;26.00;99.90
25092;DHT22;13082;52.374;4.946;2022-08-11T09:47:58;26.10;99.90
25092;DHT22;13082;52.374;4.946;2022-08-11T09:50:24;26.10;99.90
25092;DHT22;13082;52.374;4.946;2022-08-11T09:52:50;26.20;99.90
25092;DHT22;13082;52.374;4.946;2022-08-11T09:55:17;26.20;99.90
25092;DHT22;13082;52.374;4.946;2022-08-11T09:57:46;26.30;99.90
25092;DHT22;13082;52.374;4.946;2022-08-11T10:00:33;26.30;99.90
25092;DHT22;13082;52.374;4.946;2022-08-11T10:03:14;26.40;99.90
25092;DHT22;13082;52.374;4.946;2022-08-11T10:05:44;26.40;99.90
25092;DHT22;13082;52.374;4.946;2022-08-11T10:08:31;26.40;99.90
25092;DHT22;13082;52.374;4.946;2022-08-11T10:10:57;26.50;99.90
25092;DHT22;13082;52.374;4.946;2022-08-11T10:13:29;26.40;99.90
25092;DHT22;13082;52.374;4.946;2022-08-11T10:16:02;26.40;99.90
25092;DHT22;13082;52.374;4.946;2022-08-11T10:18:41;26.30;99.90
25092;DHT22;13082;52.374;4.946;2022-08-11T10:21:17;26.30;99.90
25092;DHT22;13082;52.374;4.946;2022-08-11T10:23:47;26.50;99.90
25092;DHT22;13082;52.374;4.946;2022-08-11T10:26:43;26.50;99.90
25092;DHT22;13082;52.374;4.946;2022-08-11T10:29:30;26.60;99.90
25092;DHT22;13082;52.374;4.946;2022-08-11T10:32:28;26.60;99.90
25092;DHT22;13082;52.374;4.946;2022-08-11T10:35:17;26.60;99.90
25092;DHT22;13082;52.374;4.946;2022-08-11T10:37:45;26.60;99.90
25092;DHT22;13082;52.374;4.946;2022-08-11T10:40:16;26.70;99.90
25092;DHT22;13082;52.374;4.946;2022-08-11T10:42:43;26.80;99.90
25092;DHT22;13082;52.374;4.946;2022-08-11T10:45:41;26.80;99.90
25092;DHT22;13082;52.374;4.946;2022-08-11T10:48:28;26.90;99.90
25092;DHT22;13082;52.374;4.946;2022-08-11T10:50:55;27.00;99.90
25092;DHT22;13082;52.374;4.946;2022-08-11T10:53:44;27.00;99.90
25092;DHT22;13082;52.374;4.946;2022-08-11T10:56:32;27.10;99.90
25092;DHT22;13082;52.374;4.946;2022-08-11T10:59:16;27.20;99.90
25092;DHT22;13082;52.374;4.946;2022-08-11T11:01:43;27.30;99.90
25092;DHT22;13082;52.374;4.946;2022-08-11T11:05:02;27.40;99.90
25092;DHT22;13082;52.374;4.946;2022-08-11T11:08:00;27.50;99.90
25092;DHT22;13082;52.374;4.946;2022-08-11T11:10:51;27.60;99.90
25092;DHT22;13082;52.374;4.946;2022-08-11T11:13:18;27.70;99.90
25092;DHT22;13082;52.374;4.946;2022-08-11T11:16:03;27.70;99.90
25092;DHT22;13082;52.374;4.946;2022-08-11T11:18:48;27.90;99.90
25092;DHT22;13082;52.374;4.946;2022-08-11T11:21:18;27.90;99.90
25092;DHT22;13082;52.374;4.946;2022-08-11T11:24:09;28.00;99.90
25092;DHT22;13082;52.374;4.946;2022-08-11T11:37:56;28.50;99.90
25092;DHT22;13082;52.374;4.946;2022-08-11T11:40:23;28.50;99.90
25092;DHT22;13082;52.374;4.946;2022-08-11T11:42:50;28.60;99.90
25092;DHT22;13082;52.374;4.946;2022-08-11T11:45:18;28.60;99.90
25092;DHT22;13082;52.374;4.946;2022-08-11T11:47:45;28.60;99.90
25092;DHT22;13082;52.374;4.946;2022-08-11T11:50:11;28.70;99.90
25092;DHT22;13082;52.374;4.946;2022-08-11T11:52:38;28.70;99.90
25092;DHT22;13082;52.374;4.946;2022-08-11T11:55:06;28.80;99.90
25092;DHT22;13082;52.374;4.946;2022-08-11T11:57:33;28.80;99.90
25092;DHT22;13082;52.374;4.946;2022-08-11T12:00:18;28.90;99.90
25092;DHT22;13082;52.374;4.946;2022-08-11T12:03:07;29.00;99.90
25092;DHT22;13082;52.374;4.946;2022-08-11T12:05:35;29.00;99.90
25092;DHT22;13082;52.374;4.946;2022-08-11T12:08:02;29.00;99.90
25092;DHT22;13082;52.374;4.946;2022-08-11T12:10:37;29.10;99.90
25092;DHT22;13082;52.374;4.946;2022-08-11T12:13:04;29.20;99.90
25092;DHT22;13082;52.374;4.946;2022-08-11T12:15:49;29.20;99.90
25092;DHT22;13082;52.374;4.946;2022-08-11T12:18:17;29.20;99.90
25092;DHT22;13082;52.374;4.946;2022-08-11T12:20:43;29.30;99.90
25092;DHT22;13082;52.374;4.946;2022-08-11T12:23:12;29.30;99.90
25092;DHT22;13082;52.374;4.946;2022-08-11T12:25:57;29.30;99.90
25092;DHT22;13082;52.374;4.946;2022-08-11T12:28:44;29.40;99.90
25092;DHT22;13082;52.374;4.946;2022-08-11T12:31:10;29.40;99.90
25092;DHT22;13082;52.374;4.946;2022-08-11T12:33:37;29.50;99.90
25092;DHT22;13082;52.374;4.946;2022-08-11T12:36:05;29.50;99.90
25092;DHT22;13082;52.374;4.946;2022-08-11T12:38:33;29.50;99.90
25092;DHT22;13082;52.374;4.946;2022-08-11T12:41:01;29.60;99.90
25092;DHT22;13082;52.374;4.946;2022-08-11T12:43:46;29.60;99.90
25092;DHT22;13082;52.374;4.946;2022-08-11T12:46:33;29.50;99.90
25092;DHT22;13082;52.374;4.946;2022-08-11T12:49:14;29.50;99.90
25092;DHT22;13082;52.374;4.946;2022-08-11T12:52:08;29.50;99.90
25092;DHT22;13082;52.374;4.946;2022-08-11T12:57:31;29.60;99.90
25092;DHT22;13082;52.374;4.946;2022-08-11T13:00:15;29.70;99.90
25092;DHT22;13082;52.374;4.946;2022-08-11T13:03:00;29.70;99.90
25092;DHT22;13082;52.374;4.946;2022-08-11T13:05:46;29.60;99.90
25092;DHT22;13082;52.374;4.946;2022-08-11T13:08:14;29.60;99.90
25092;DHT22;13082;52.374;4.946;2022-08-11T13:10:41;29.60;99.90
25092;DHT22;13082;52.374;4.946;2022-08-11T13:13:26;29.70;99.90
25092;DHT22;13082;52.374;4.946;2022-08-11T13:15:52;29.80;99.90
25092;DHT22;13082;52.374;4.946;2022-08-11T13:18:20;29.70;99.90
25092;DHT22;13082;52.374;4.946;2022-08-11T13:20:52;29.80;99.90
25092;DHT22;13082;52.374;4.946;2022-08-11T13:23:19;29.80;99.90
25092;DHT22;13082;52.374;4.946;2022-08-11T13:25:46;29.80;99.90
25092;DHT22;13082;52.374;4.946;2022-08-11T13:28:13;29.80;99.90
25092;DHT22;13082;52.374;4.946;2022-08-11T13:30:41;29.80;99.90
25092;DHT22;13082;52.374;4.946;2022-08-11T13:33:26;29.80;99.90
25092;DHT22;13082;52.374;4.946;2022-08-11T13:35:53;29.80;99.90
25092;DHT22;13082;52.374;4.946;2022-08-11T13:38:22;29.80;99.90
25092;DHT22;13082;52.374;4.946;2022-08-11T13:40:51;29.70;99.90
25092;DHT22;13082;52.374;4.946;2022-08-11T13:43:19;29.80;99.90
25092;DHT22;13082;52.374;4.946;2022-08-11T13:45:46;29.80;99.90
25092;DHT22;13082;52.374;4.946;2022-08-11T13:48:14;29.80;99.90
25092;DHT22;13082;52.374;4.946;2022-08-11T13:50:42;29.80;99.90
25092;DHT22;13082;52.374;4.946;2022-08-11T13:53:28;29.80;99.90
25092;DHT22;13082;52.374;4.946;2022-08-11T13:55:57;29.80;99.90
25092;DHT22;13082;52.374;4.946;2022-08-11T13:58:24;29.70;99.90
25092;DHT22;13082;52.374;4.946;2022-08-11T14:00:51;29.70;99.90
25092;DHT22;13082;52.374;4.946;2022-08-11T14:03:24;29.80;99.90
25092;DHT22;13082;52.374;4.946;2022-08-11T14:05:53;29.80;99.90
25092;DHT22;13082;52.374;4.946;2022-08-11T14:08:28;29.80;99.90
25092;DHT22;13082;52.374;4.946;2022-08-11T14:11:01;29.80;99.90
25092;DHT22;13082;52.374;4.946;2022-08-11T14:13:46;29.80;99.90
25092;DHT22;13082;52.374;4.946;2022-08-11T14:16:28;29.70;99.90
25092;DHT22;13082;52.374;4.946;2022-08-11T14:18:59;29.70;99.90
25092;DHT22;13082;52.374;4.946;2022-08-11T14:21:27;29.70;99.90
25092;DHT22;13082;52.374;4.946;2022-08-11T14:24:15;29.70;99.90
25092;DHT22;13082;52.374;4.946;2022-08-11T14:26:41;29.70;99.90
25092;DHT22;13082;52.374;4.946;2022-08-11T14:29:16;29.70;99.90
25092;DHT22;13082;52.374;4.946;2022-08-11T14:31:47;29.80;99.90
25092;DHT22;13082;52.374;4.946;2022-08-11T14:34:14;29.70;99.90
25092;DHT22;13082;52.374;4.946;2022-08-11T14:36:44;29.70;99.90
25092;DHT22;13082;52.374;4.946;2022-08-11T14:39:21;29.70;99.90
25092;DHT22;13082;52.374;4.946;2022-08-11T14:41:53;29.70;99.90
25092;DHT22;13082;52.374;4.946;2022-08-11T14:44:43;29.70;99.90
25092;DHT22;13082;52.374;4.946;2022-08-11T14:47:31;29.70;99.90
25092;DHT22;13082;52.374;4.946;2022-08-11T14:49:58;29.70;99.90
25092;DHT22;13082;52.374;4.946;2022-08-11T14:52:25;29.70;99.90
25092;DHT22;13082;52.374;4.946;2022-08-11T14:54:52;29.70;99.90
25092;DHT22;13082;52.374;4.946;2022-08-11T14:57:38;29.70;99.90
25092;DHT22;13082;52.374;4.946;2022-08-11T15:00:07;29.70;99.90
25092;DHT22;13082;52.374;4.946;2022-08-11T15:02:36;29.60;99.90
25092;DHT22;13082;52.374;4.946;2022-08-11T15:05:22;29.60;99.90
25092;DHT22;13082;52.374;4.946;2022-08-11T15:07:49;29.60;99.90
25092;DHT22;13082;52.374;4.946;2022-08-11T15:10:17;29.50;99.90
25092;DHT22;13082;52.374;4.946;2022-08-11T15:12:44;29.40;99.90
25092;DHT22;13082;52.374;4.946;2022-08-11T15:15:10;29.40;99.90
25092;DHT22;13082;52.374;4.946;2022-08-11T15:18:00;29.40;99.90
25092;DHT22;13082;52.374;4.946;2022-08-11T15:20:29;29.30;99.90
25092;DHT22;13082;52.374;4.946;2022-08-11T15:23:13;29.30;99.90
25092;DHT22;13082;52.374;4.946;2022-08-11T15:26:14;29.30;99.90
25092;DHT22;13082;52.374;4.946;2022-08-11T15:28:48;29.30;99.90
25092;DHT22;13082;52.374;4.946;2022-08-11T15:31:35;29.30;99.90
25092;DHT22;13082;52.374;4.946;2022-08-11T15:34:24;29.30;99.90
25092;DHT22;13082;52.374;4.946;2022-08-11T15:37:14;29.20;99.90
25092;DHT22;13082;52.374;4.946;2022-08-11T15:40:10;29.20;99.90
25092;DHT22;13082;52.374;4.946;2022-08-11T15:43:20;29.20;99.90
25092;DHT22;13082;52.374;4.946;2022-08-11T15:46:32;29.20;99.90
25092;DHT22;13082;52.374;4.946;2022-08-11T15:49:02;29.10;99.90
25092;DHT22;13082;52.374;4.946;2022-08-11T15:51:59;29.10;99.90
25092;DHT22;13082;52.374;4.946;2022-08-11T15:54:28;29.10;99.90
25092;DHT22;13082;52.374;4.946;2022-08-11T15:56:57;29.00;99.90
25092;DHT22;13082;52.374;4.946;2022-08-11T15:59:27;29.00;99.90
25092;DHT22;13082;52.374;4.946;2022-08-11T16:02:15;29.00;99.90
25092;DHT22;13082;52.374;4.946;2022-08-11T16:04:43;29.00;99.90
25092;DHT22;13082;52.374;4.946;2022-08-11T16:07:15;29.00;99.90
25092;DHT22;13082;52.374;4.946;2022-08-11T16:09:48;29.00;99.90
25092;DHT22;13082;52.374;4.946;2022-08-11T16:12:23;29.00;99.90
25092;DHT22;13082;52.374;4.946;2022-08-11T16:14:53;28.90;99.90
25092;DHT22;13082;52.374;4.946;2022-08-11T16:18:05;28.90;99.90
25092;DHT22;13082;52.374;4.946;2022-08-11T16:20:32;28.90;99.90
25092;DHT22;13082;52.374;4.946;2022-08-11T16:23:02;28.80;99.90
25092;DHT22;13082;52.374;4.946;2022-08-11T16:25:35;28.80;99.90
25092;DHT22;13082;52.374;4.946;2022-08-11T16:28:05;28.80;99.90
25092;DHT22;13082;52.374;4.946;2022-08-11T16:30:38;28.70;99.90
25092;DHT22;13082;52.374;4.946;2022-08-11T16:33:05;28.70;99.90
25092;DHT22;13082;52.374;4.946;2022-08-11T16:35:35;28.60;99.90
25092;DHT22;13082;52.374;4.946;2022-08-11T16:38:24;28.60;99.90
25092;DHT22;13082;52.374;4.946;2022-08-11T16:41:21;28.50;99.90
25092;DHT22;13082;52.374;4.946;2022-08-11T16:44:08;28.50;99.90
25092;DHT22;13082;52.374;4.946;2022-08-11T16:46:54;28.50;99.90
25092;DHT22;13082;52.374;4.946;2022-08-11T16:49:33;28.40;99.90
25092;DHT22;13082;52.374;4.946;2022-08-11T16:52:02;28.40;99.90
25092;DHT22;13082;52.374;4.946;2022-08-11T16:54:32;28.40;99.90
25092;DHT22;13082;52.374;4.946;2022-08-11T16:57:02;28.30;99.90
25092;DHT22;13082;52.374;4.946;2022-08-11T16:59:49;28.30;99.90
25092;DHT22;13082;52.374;4.946;2022-08-11T17:02:16;28.20;99.90
25092;DHT22;13082;52.374;4.946;2022-08-11T17:05:09;28.20;99.90
25092;DHT22;13082;52.374;4.946;2022-08-11T17:08:01;28.10;99.90
25092;DHT22;13082;52.374;4.946;2022-08-11T17:10:50;28.10;99.90
25092;DHT22;13082;52.374;4.946;2022-08-11T17:13:52;28.00;99.90
25092;DHT22;13082;52.374;4.946;2022-08-11T17:16:29;28.00;99.90
25092;DHT22;13082;52.374;4.946;2022-08-11T17:19:00;28.00;99.90
25092;DHT22;13082;52.374;4.946;2022-08-11T17:21:36;28.00;99.90
25092;DHT22;13082;52.374;4.946;2022-08-11T17:24:23;27.90;99.90
25092;DHT22;13082;52.374;4.946;2022-08-11T17:26:54;27.80;99.90
25092;DHT22;13082;52.374;4.946;2022-08-11T17:29:27;27.80;99.90
25092;DHT22;13082;52.374;4.946;2022-08-11T17:31:55;27.80;99.90
25092;DHT22;13082;52.374;4.946;2022-08-11T17:34:42;27.80;99.90
25092;DHT22;13082;52.374;4.946;2022-08-11T17:37:31;27.70;99.90
25092;DHT22;13082;52.374;4.946;2022-08-11T17:40:00;27.70;99.90
25092;DHT22;13082;52.374;4.946;2022-08-11T17:42:29;27.60;99.90
25092;DHT22;13082;52.374;4.946;2022-08-11T17:45:16;27.50;99.90
25092;DHT22;13082;52.374;4.946;2022-08-11T17:48:18;27.50;99.90
25092;DHT22;13082;52.374;4.946;2022-08-11T17:50:53;27.50;99.90
25092;DHT22;13082;52.374;4.946;2022-08-11T17:53:20;27.40;99.90
25092;DHT22;13082;52.374;4.946;2022-08-11T17:56:05;27.40;99.90
25092;DHT22;13082;52.374;4.946;2022-08-11T17:58:59;27.30;99.90
25092;DHT22;13082;52.374;4.946;2022-08-11T18:01:45;27.30;99.90
25092;DHT22;13082;52.374;4.946;2022-08-11T18:04:12;27.20;99.90
25092;DHT22;13082;52.374;4.946;2022-08-11T18:06:40;27.20;99.90
25092;DHT22;13082;52.374;4.946;2022-08-11T18:09:09;27.20;99.90
25092;DHT22;13082;52.374;4.946;2022-08-11T18:11:55;27.10;99.90
25092;DHT22;13082;52.374;4.946;2022-08-11T18:14:44;27.10;99.90
25092;DHT22;13082;52.374;4.946;2022-08-11T18:17:29;27.00;99.90
25092;DHT22;13082;52.374;4.946;2022-08-11T18:20:13;27.00;99.90
25092;DHT22;13082;52.374;4.946;2022-08-11T18:23:00;27.00;99.90
25092;DHT22;13082;52.374;4.946;2022-08-11T18:25:46;27.00;99.90
25092;DHT22;13082;52.374;4.946;2022-08-11T18:28:43;27.00;99.90
25092;DHT22;13082;52.374;4.946;2022-08-11T18:31:31;26.90;99.90
25092;DHT22;13082;52.374;4.946;2022-08-11T18:34:20;26.90;99.90
25092;DHT22;13082;52.374;4.946;2022-08-11T18:37:12;26.80;99.90
25092;DHT22;13082;52.374;4.946;2022-08-11T18:40:13;26.80;99.90
25092;DHT22;13082;52.374;4.946;2022-08-11T18:43:01;26.70;99.90
25092;DHT22;13082;52.374;4.946;2022-08-11T18:45:48;26.60;99.90
25092;DHT22;13082;52.374;4.946;2022-08-11T18:48:38;26.60;99.90
25092;DHT22;13082;52.374;4.946;2022-08-11T18:51:25;26.50;99.90
25092;DHT22;13082;52.374;4.946;2022-08-11T18:54:12;26.40;99.90
25092;DHT22;13082;52.374;4.946;2022-08-11T18:57:00;26.40;99.90
25092;DHT22;13082;52.374;4.946;2022-08-11T18:59:46;26.40;99.90
25092;DHT22;13082;52.374;4.946;2022-08-11T19:02:34;26.30;99.90
25092;DHT22;13082;52.374;4.946;2022-08-11T19:05:20;26.30;99.90
25092;DHT22;13082;52.374;4.946;2022-08-11T19:08:06;26.20;99.90
25092;DHT22;13082;52.374;4.946;2022-08-11T19:10:52;26.20;99.90
25092;DHT22;13082;52.374;4.946;2022-08-11T19:13:39;26.10;99.90
25092;DHT22;13082;52.374;4.946;2022-08-11T19:16:23;26.10;99.90
25092;DHT22;13082;52.374;4.946;2022-08-11T19:19:08;26.00;99.90
25092;DHT22;13082;52.374;4.946;2022-08-11T19:21:54;26.00;99.90
25092;DHT22;13082;52.374;4.946;2022-08-11T19:24:39;26.00;99.90
25092;DHT22;13082;52.374;4.946;2022-08-11T19:27:26;25.90;99.90
25092;DHT22;13082;52.374;4.946;2022-08-11T19:30:11;25.90;99.90
25092;DHT22;13082;52.374;4.946;2022-08-11T19:32:56;25.80;99.90
25092;DHT22;13082;52.374;4.946;2022-08-11T19:35:42;25.70;99.90
25092;DHT22;13082;52.374;4.946;2022-08-11T19:38:28;25.70;99.90
25092;DHT22;13082;52.374;4.946;2022-08-11T19:41:14;25.60;99.90
25092;DHT22;13082;52.374;4.946;2022-08-11T19:43:59;25.60;99.90
25092;DHT22;13082;52.374;4.946;2022-08-11T19:46:45;25.60;99.90